createdAt,value
2023-08-24T00:01:29.567Z,4.92
2023-08-24T00:03:01.561Z,4.83
2023-08-24T00:04:32.973Z,4.83
2023-08-24T00:06:04.453Z,4.87
2023-08-24T00:07:35.902Z,4.64
2023-08-24T00:09:07.366Z,4.94
2023-08-24T00:10:38.748Z,4.95
2023-08-24T00:12:10.245Z,4.96
2023-08-24T00:13:41.609Z,4.92
2023-08-24T00:15:13.010Z,4.86
2023-08-24T00:16:44.565Z,4.81
2023-08-24T00:18:15.989Z,4.92
2023-08-24T00:19:47.452Z,4.86
2023-08-24T00:21:19.168Z,5.02
2023-08-24T00:22:50.665Z,4.77
2023-08-24T00:24:27.100Z,4.75
2023-08-24T00:26:08.524Z,4.68
2023-08-24T00:27:40.131Z,4.98
2023-08-24T00:29:11.456Z,4.93
2023-08-24T00:30:42.849Z,5.03
2023-08-24T00:32:14.331Z,4.90
2023-08-24T00:33:45.713Z,5.06
2023-08-24T00:35:17.087Z,4.88
2023-08-24T00:36:48.588Z,5.24
2023-08-24T00:38:19.924Z,5.02
2023-08-24T00:39:51.348Z,4.66
2023-08-24T00:41:22.867Z,4.87
2023-08-24T00:42:59.705Z,4.69
2023-08-24T00:44:36.237Z,4.66
2023-08-24T00:46:07.849Z,4.69
2023-08-24T00:47:39.335Z,4.54
2023-08-24T00:49:10.765Z,4.74
2023-08-24T00:50:42.392Z,4.58
2023-08-24T00:52:13.757Z,4.96
2023-08-24T00:53:45.206Z,5.07
2023-08-24T00:55:16.655Z,5.07
2023-08-24T00:56:48.120Z,5.11
2023-08-24T00:58:19.626Z,4.99
2023-08-24T00:59:50.998Z,4.64
2023-08-24T01:01:22.443Z,4.89
2023-08-24T01:02:54.125Z,5.15
2023-08-24T01:04:25.597Z,5.12
2023-08-24T01:05:56.952Z,4.85
2023-08-24T01:07:28.501Z,5.27
2023-08-24T01:08:59.885Z,5.22
2023-08-24T01:10:31.420Z,4.94
2023-08-24T01:12:03.045Z,5.28
2023-08-24T01:13:34.457Z,5.04
2023-08-24T01:15:05.770Z,4.81
2023-08-24T01:16:37.249Z,5.09
2023-08-24T01:18:09.054Z,4.86
2023-08-24T01:19:40.569Z,4.97
2023-08-24T01:21:12.094Z,4.93
2023-08-24T01:22:43.536Z,4.93
2023-08-24T01:24:14.959Z,4.74
2023-08-24T01:27:42.530Z,4.97
2023-08-24T01:29:13.930Z,4.86
2023-08-24T01:30:45.369Z,5.09
2023-08-24T01:32:26.766Z,5.14
2023-08-24T01:34:03.316Z,5.07
2023-08-24T01:35:49.778Z,4.97
2023-08-24T01:37:21.252Z,4.76
2023-08-24T01:38:52.578Z,5.40
2023-08-24T01:40:39.166Z,5.15
2023-08-24T01:42:10.615Z,5.05
2023-08-24T01:43:44.178Z,4.90
2023-08-24T01:45:15.895Z,4.86
2023-08-24T01:46:47.556Z,4.44
2023-08-24T01:48:19.065Z,4.61
2023-08-24T01:49:50.606Z,4.66
2023-08-24T01:51:22.001Z,4.93
2023-08-24T01:52:53.460Z,4.83
2023-08-24T01:54:24.819Z,5.06
2023-08-24T01:55:56.231Z,4.72
2023-08-24T01:57:27.760Z,4.69
2023-08-24T01:58:59.212Z,5.10
2023-08-24T02:00:30.664Z,4.87
2023-08-24T02:02:12.242Z,4.89
2023-08-24T02:03:43.782Z,4.88
2023-08-24T02:05:15.311Z,5.03
2023-08-24T02:06:51.753Z,5.01
2023-08-24T02:08:23.586Z,5.02
2023-08-24T02:09:55.133Z,4.75
2023-08-24T02:11:26.503Z,5.01
2023-08-24T02:12:58.179Z,5.01
2023-08-24T02:14:29.477Z,4.89
2023-08-24T02:16:00.944Z,4.81
2023-08-24T02:17:34.086Z,4.71
2023-08-24T02:19:05.505Z,4.79
2023-08-24T02:20:36.866Z,4.78
2023-08-24T02:22:08.263Z,4.68
2023-08-24T02:23:39.917Z,4.83
2023-08-24T02:25:11.287Z,4.85
2023-08-24T02:26:42.970Z,4.71
2023-08-24T02:28:14.361Z,4.73
2023-08-24T02:29:45.995Z,4.63
2023-08-24T02:31:18.242Z,4.91
2023-08-24T02:32:49.896Z,4.93
2023-08-24T02:34:21.719Z,5.18
2023-08-24T02:35:53.212Z,4.86
2023-08-24T02:37:24.591Z,5.08
2023-08-24T02:38:57.204Z,4.90
2023-08-24T02:40:29.246Z,4.64
2023-08-24T02:42:00.802Z,4.98
2023-08-24T02:43:32.425Z,4.67
2023-08-24T02:45:03.736Z,4.97
2023-08-24T02:46:35.114Z,5.11
2023-08-24T02:48:11.600Z,4.97
2023-08-24T02:49:43.036Z,4.97
2023-08-24T02:51:29.556Z,4.74
2023-08-24T02:53:06.266Z,4.76
2023-08-24T02:54:48.173Z,4.93
2023-08-24T02:56:19.838Z,4.90
2023-08-24T02:57:51.576Z,4.79
2023-08-24T02:59:23.365Z,4.62
2023-08-24T03:00:56.040Z,4.84
2023-08-24T03:02:27.961Z,4.94
2023-08-24T03:04:14.447Z,5.41
2023-08-24T03:05:46.993Z,5.03
2023-08-24T03:07:28.472Z,5.26
2023-08-24T03:09:00.998Z,5.14
2023-08-24T03:10:37.404Z,5.42
2023-08-24T03:12:14.888Z,5.16
2023-08-24T03:13:46.261Z,4.98
2023-08-24T03:15:18.002Z,5.01
2023-08-24T03:16:49.766Z,5.15
2023-08-24T03:18:21.134Z,4.88
2023-08-24T03:19:52.766Z,4.88
2023-08-24T03:21:24.118Z,4.64
2023-08-24T03:22:55.519Z,4.80
2023-08-24T03:24:26.920Z,5.09
2023-08-24T03:25:58.300Z,4.79
2023-08-24T03:27:29.885Z,4.83
2023-08-24T03:29:01.253Z,4.96
2023-08-24T03:30:32.690Z,5.26
2023-08-24T03:32:04.068Z,5.21
2023-08-24T03:33:35.582Z,5.12
2023-08-24T03:35:16.975Z,5.11
2023-08-24T03:37:03.415Z,4.87
2023-08-24T03:38:34.926Z,4.95
2023-08-24T03:40:06.303Z,5.02
2023-08-24T03:41:37.751Z,5.03
2023-08-24T03:43:09.095Z,4.91
2023-08-24T03:44:40.580Z,4.86
2023-08-24T03:46:11.987Z,5.35
2023-08-24T03:47:43.428Z,5.04
2023-08-24T03:49:15.086Z,5.10
2023-08-24T03:50:46.548Z,4.85
2023-08-24T03:52:23.100Z,4.81
2023-08-24T03:54:09.561Z,4.82
2023-08-24T03:56:16.060Z,4.50
2023-08-24T03:57:57.485Z,5.04
2023-08-24T03:59:28.883Z,4.98
2023-08-24T04:01:00.278Z,4.89
2023-08-24T04:02:31.732Z,5.35
2023-08-24T04:04:03.223Z,5.39
2023-08-24T04:05:39.692Z,5.24
2023-08-24T04:07:11.140Z,5.25
2023-08-24T04:08:42.590Z,4.89
2023-08-24T04:10:13.991Z,5.36
2023-08-24T04:11:45.417Z,5.49
2023-08-24T04:13:16.812Z,5.50
2023-08-24T04:14:48.241Z,5.62
2023-08-24T04:16:19.808Z,5.59
2023-08-24T04:17:51.673Z,5.43
2023-08-24T04:19:23.278Z,5.44
2023-08-24T04:20:54.669Z,5.26
2023-08-24T04:22:26.119Z,5.48
2023-08-24T04:23:57.725Z,5.15
2023-08-24T04:25:29.069Z,5.12
2023-08-24T04:27:00.399Z,4.72
2023-08-24T04:28:31.832Z,4.80
2023-08-24T04:30:03.175Z,4.91
2023-08-24T04:31:34.626Z,4.65
2023-08-24T04:33:06.059Z,4.63
2023-08-24T04:34:37.520Z,4.50
2023-08-24T04:36:08.973Z,4.76
2023-08-24T04:37:40.648Z,4.62
2023-08-24T04:39:12.053Z,4.90
2023-08-24T04:40:43.402Z,4.93
2023-08-24T04:42:14.781Z,4.80
2023-08-24T04:43:46.353Z,4.61
2023-08-24T04:45:17.719Z,4.94
2023-08-24T04:46:49.148Z,4.97
2023-08-24T04:48:20.737Z,5.03
2023-08-24T04:49:52.145Z,5.43
2023-08-24T04:51:23.725Z,5.14
2023-08-24T04:52:55.368Z,5.15
2023-08-24T04:54:26.843Z,4.97
2023-08-24T04:55:58.346Z,5.07
2023-08-24T04:57:29.730Z,5.37
2023-08-24T04:59:01.173Z,5.50
2023-08-24T05:00:32.509Z,5.30
2023-08-24T05:02:04.010Z,5.65
2023-08-24T05:03:35.774Z,5.59
2023-08-24T05:05:07.469Z,5.77
2023-08-24T05:06:38.852Z,5.67
2023-08-24T05:08:12.846Z,5.37
2023-08-24T05:09:45.219Z,5.56
2023-08-24T05:11:16.849Z,5.42
2023-08-24T05:12:48.502Z,5.22
2023-08-24T05:14:19.915Z,5.30
2023-08-24T05:15:51.342Z,5.45
2023-08-24T05:17:22.793Z,6.07
2023-08-24T05:18:54.376Z,5.77
2023-08-24T05:20:26.110Z,5.81
2023-08-24T05:21:57.549Z,6.44
2023-08-24T05:23:29.021Z,5.81
2023-08-24T05:25:00.632Z,5.53
2023-08-24T05:26:31.989Z,5.33
2023-08-24T05:28:03.690Z,5.18
2023-08-24T05:29:35.197Z,5.16
2023-08-24T05:31:06.794Z,5.56
2023-08-24T05:32:38.351Z,5.18
2023-08-24T05:34:09.857Z,5.33
2023-08-24T05:35:41.425Z,5.20
2023-08-24T05:37:12.887Z,5.05
2023-08-24T05:38:55.121Z,5.05
2023-08-24T05:40:35.642Z,5.00
2023-08-24T05:42:07.171Z,4.96
2023-08-24T05:43:38.607Z,4.60
2023-08-24T05:45:10.218Z,4.76
2023-08-24T05:46:41.610Z,5.33
2023-08-24T05:48:13.278Z,5.51
2023-08-24T05:49:44.994Z,4.91
2023-08-24T05:51:16.797Z,4.88
2023-08-24T05:52:48.535Z,4.73
2023-08-24T05:54:20.152Z,4.84
2023-08-24T05:55:51.674Z,5.23
2023-08-24T05:57:25.212Z,5.17
2023-08-24T05:58:57.006Z,4.87
2023-08-24T06:00:28.376Z,5.40
2023-08-24T06:01:59.756Z,4.94
2023-08-24T06:03:31.439Z,4.85
2023-08-24T06:05:02.864Z,4.94
2023-08-24T06:06:34.808Z,4.84
2023-08-24T06:08:06.465Z,4.93
2023-08-24T06:09:37.877Z,5.03
2023-08-24T06:11:09.396Z,5.30
2023-08-24T06:12:40.883Z,5.11
2023-08-24T06:14:12.431Z,5.29
2023-08-24T06:15:43.905Z,5.41
2023-08-24T06:17:15.529Z,5.42
2023-08-24T06:18:46.938Z,5.14
2023-08-24T06:20:18.318Z,5.27
2023-08-24T06:21:49.748Z,5.20
2023-08-24T06:23:21.183Z,5.00
2023-08-24T06:24:52.559Z,4.97
2023-08-24T06:26:23.890Z,5.45
2023-08-24T06:27:55.686Z,5.20
2023-08-24T06:29:27.192Z,5.48
2023-08-24T06:30:58.552Z,5.40
2023-08-24T06:32:30.050Z,5.12
2023-08-24T06:34:02.034Z,4.92
2023-08-24T06:35:33.527Z,4.76
2023-08-24T06:37:04.981Z,4.67
2023-08-24T06:38:36.314Z,4.82
2023-08-24T06:40:07.683Z,4.95
2023-08-24T06:41:39.255Z,4.97
2023-08-24T06:43:10.670Z,4.93
2023-08-24T06:44:42.456Z,4.94
2023-08-24T06:46:14.594Z,4.63
2023-08-24T06:47:46.288Z,4.76
2023-08-24T06:49:17.956Z,4.66
2023-08-24T06:50:50.543Z,4.53
2023-08-24T06:52:22.470Z,4.80
2023-08-24T06:53:54.630Z,4.38
2023-08-24T06:55:26.332Z,4.68
2023-08-24T06:56:57.884Z,4.66
2023-08-24T06:58:29.259Z,4.74
2023-08-24T07:00:00.895Z,4.73
2023-08-24T07:01:32.400Z,4.82
2023-08-24T07:03:03.964Z,4.50
2023-08-24T07:04:35.612Z,4.53
2023-08-24T07:06:07.037Z,4.34
2023-08-24T07:07:38.534Z,4.59
2023-08-24T07:09:09.992Z,4.40
2023-08-24T07:10:41.483Z,4.17
2023-08-24T07:12:12.891Z,4.57
2023-08-24T07:13:44.316Z,4.61
2023-08-24T07:15:15.871Z,4.30
2023-08-24T07:16:47.407Z,4.86
2023-08-24T07:18:20.994Z,4.35
2023-08-24T07:19:52.876Z,4.18
2023-08-24T07:21:24.248Z,4.53
2023-08-24T07:22:55.703Z,4.56
2023-08-24T07:24:38.943Z,4.52
2023-08-24T07:26:16.647Z,4.37
2023-08-24T07:27:48.147Z,4.40
2023-08-24T07:29:20.026Z,4.44
2023-08-24T07:30:51.712Z,4.40
2023-08-24T07:32:23.457Z,4.41
2023-08-24T07:33:55.015Z,4.30
2023-08-24T07:35:26.489Z,4.39
2023-08-24T07:36:57.903Z,4.69
2023-08-24T07:38:29.333Z,4.88
2023-08-24T07:40:00.770Z,4.81
2023-08-24T07:41:32.177Z,4.98
2023-08-24T07:43:03.563Z,5.32
2023-08-24T07:44:35.056Z,5.48
2023-08-24T07:46:08.784Z,5.73
2023-08-24T07:47:42.890Z,5.56
2023-08-24T07:49:14.471Z,5.37
2023-08-24T07:50:45.865Z,5.41
2023-08-24T07:52:17.372Z,5.78
2023-08-24T07:53:48.904Z,5.71
2023-08-24T07:55:20.372Z,5.68
2023-08-24T07:56:51.888Z,5.47
2023-08-24T07:58:23.357Z,5.54
2023-08-24T07:59:54.779Z,5.43
2023-08-24T08:01:26.382Z,5.02
2023-08-24T08:02:58.008Z,4.79
2023-08-24T08:04:35.165Z,4.88
2023-08-24T08:06:06.898Z,4.97
2023-08-24T08:07:38.324Z,4.77
2023-08-24T08:09:09.769Z,4.71
2023-08-24T08:10:41.294Z,4.50
2023-08-24T08:12:12.881Z,4.44
2023-08-24T08:13:44.402Z,4.05
2023-08-24T08:15:15.830Z,3.96
2023-08-24T08:16:47.252Z,4.18
2023-08-24T08:18:18.678Z,3.71
2023-08-24T08:19:50.377Z,3.74
2023-08-24T08:21:22.788Z,4.10
2023-08-24T08:22:55.746Z,4.10
2023-08-24T08:24:27.184Z,3.85
2023-08-24T08:25:58.830Z,3.68
2023-08-24T08:27:30.259Z,3.60
2023-08-24T08:29:01.891Z,3.59
2023-08-24T08:30:33.402Z,3.94
2023-08-24T08:32:05.159Z,3.81
2023-08-24T08:33:36.633Z,3.84
2023-08-24T08:35:08.030Z,3.67
2023-08-24T08:36:39.485Z,3.73
2023-08-24T08:38:11.124Z,3.53
2023-08-24T08:39:42.670Z,3.90
2023-08-24T08:41:14.130Z,3.13
2023-08-24T08:42:45.596Z,3.41
2023-08-24T08:44:17.017Z,3.33
2023-08-24T08:45:48.470Z,3.54
2023-08-24T08:47:19.996Z,3.55
2023-08-24T08:48:51.520Z,3.76
2023-08-24T08:50:23.128Z,4.11
2023-08-24T08:51:54.646Z,3.70
2023-08-24T08:53:26.165Z,3.56
2023-08-24T08:54:57.774Z,3.56
2023-08-24T08:56:29.295Z,3.46
2023-08-24T08:58:00.786Z,3.30
2023-08-24T08:59:32.290Z,3.39
2023-08-24T09:01:03.801Z,3.44
2023-08-24T09:02:35.419Z,3.54
2023-08-24T09:04:06.900Z,3.78
2023-08-24T09:05:38.562Z,3.44
2023-08-24T09:07:09.984Z,3.78
2023-08-24T09:08:41.459Z,3.59
2023-08-24T09:10:13.001Z,3.43
2023-08-24T09:11:44.475Z,3.53
2023-08-24T09:13:15.903Z,3.88
2023-08-24T09:14:47.431Z,3.43
2023-08-24T09:16:18.894Z,3.39
2023-08-24T09:17:50.890Z,3.55
2023-08-24T09:19:22.687Z,3.72
2023-08-24T09:20:54.109Z,3.42
2023-08-24T09:22:25.661Z,3.31
2023-08-24T09:23:57.143Z,3.68
2023-08-24T09:25:28.846Z,3.36
2023-08-24T09:27:00.397Z,3.42
2023-08-24T09:28:31.819Z,3.21
2023-08-24T09:30:03.416Z,3.40
2023-08-24T09:31:34.972Z,3.66
2023-08-24T09:33:06.486Z,3.14
2023-08-24T09:34:38.033Z,3.09
2023-08-24T09:36:09.572Z,3.06
2023-08-24T09:37:41.051Z,3.09
2023-08-24T09:39:12.684Z,3.04
2023-08-24T09:40:44.140Z,2.94
2023-08-24T09:42:15.671Z,3.06
2023-08-24T09:43:47.277Z,3.06
2023-08-24T09:45:19.238Z,3.13
2023-08-24T09:46:50.753Z,3.00
2023-08-24T09:48:22.224Z,2.97
2023-08-24T09:49:53.694Z,2.87
2023-08-24T09:51:43.116Z,2.86
2023-08-24T09:53:14.634Z,2.83
2023-08-24T09:54:46.194Z,2.48
2023-08-24T09:56:17.675Z,2.84
2023-08-24T09:57:49.353Z,2.73
2023-08-24T09:59:20.936Z,3.14
2023-08-24T10:00:52.420Z,2.73
2023-08-24T10:02:24.157Z,2.83
2023-08-24T10:03:55.736Z,3.11
2023-08-24T10:05:36.862Z,2.90
2023-08-24T10:07:10.977Z,2.80
2023-08-24T10:08:42.636Z,2.83
2023-08-24T10:10:14.128Z,2.79
2023-08-24T10:11:45.601Z,2.84
2023-08-24T10:13:17.104Z,2.69
2023-08-24T10:14:48.607Z,2.51
2023-08-24T10:16:20.090Z,2.74
2023-08-24T10:17:56.682Z,2.55
2023-08-24T10:19:28.235Z,2.53
2023-08-24T10:20:59.856Z,2.40
2023-08-24T10:22:31.384Z,2.39
2023-08-24T10:24:07.884Z,2.56
2023-08-24T10:25:39.377Z,2.30
2023-08-24T10:27:10.969Z,2.38
2023-08-24T10:28:42.697Z,2.72
2023-08-24T10:31:52.640Z,2.60
2023-08-24T10:33:24.250Z,2.45
2023-08-24T10:34:55.844Z,2.50
2023-08-24T10:36:27.358Z,2.47
2023-08-24T10:37:58.860Z,2.65
2023-08-24T10:39:30.489Z,2.77
2023-08-24T10:41:02.096Z,2.71
2023-08-24T10:42:33.625Z,2.63
2023-08-24T10:44:06.567Z,2.65
2023-08-24T10:45:38.121Z,2.68
2023-08-24T10:47:09.625Z,2.67
2023-08-24T10:48:41.219Z,2.77
2023-08-24T10:50:12.770Z,2.77
2023-08-24T10:51:44.424Z,2.75
2023-08-24T10:53:15.978Z,2.77
2023-08-24T10:54:47.812Z,2.70
2023-08-24T10:56:19.322Z,2.61
2023-08-24T10:57:51.826Z,2.56
2023-08-24T10:59:24.566Z,2.58
2023-08-24T11:00:58.429Z,2.89
2023-08-24T11:02:30.108Z,2.83
2023-08-24T11:04:01.740Z,2.78
2023-08-24T11:05:33.306Z,2.65
2023-08-24T11:07:04.861Z,2.74
2023-08-24T11:08:36.593Z,2.66
2023-08-24T11:10:08.191Z,2.48
2023-08-24T11:11:39.721Z,2.77
2023-08-24T11:13:11.250Z,2.53
2023-08-24T11:14:42.991Z,2.52
2023-08-24T11:16:14.772Z,2.50
2023-08-24T11:17:46.545Z,2.58
2023-08-24T11:19:18.154Z,2.69
2023-08-24T11:20:49.768Z,2.71
2023-08-24T11:22:21.366Z,2.54
2023-08-24T11:23:52.939Z,2.44
2023-08-24T11:25:24.529Z,2.63
2023-08-24T11:26:56.130Z,2.50
2023-08-24T11:28:27.748Z,2.55
2023-08-24T11:29:59.431Z,2.61
2023-08-24T11:31:31.084Z,2.35
2023-08-24T11:33:02.722Z,2.76
2023-08-24T11:34:34.407Z,2.73
2023-08-24T11:36:06.078Z,2.61
2023-08-24T11:37:37.696Z,2.71
2023-08-24T11:39:09.314Z,2.74
2023-08-24T11:40:40.942Z,2.62
2023-08-24T11:42:12.495Z,3.04
2023-08-24T11:43:44.148Z,2.73
2023-08-24T11:45:15.762Z,2.73
2023-08-24T11:46:47.459Z,2.81
2023-08-24T11:48:19.134Z,2.76
2023-08-24T11:49:50.773Z,2.88
2023-08-24T11:51:33.446Z,2.75
2023-08-24T11:53:13.585Z,2.86
2023-08-24T11:54:45.401Z,2.66
2023-08-24T11:56:17.776Z,2.34
2023-08-24T11:57:50.983Z,2.57
2023-08-24T11:59:23.622Z,2.54
2023-08-24T12:00:55.330Z,2.75
2023-08-24T12:02:27.163Z,2.53
2023-08-24T12:03:58.803Z,2.42
2023-08-24T12:05:30.511Z,2.29
2023-08-24T12:07:02.229Z,2.53
2023-08-24T12:08:33.865Z,2.34
2023-08-24T12:10:05.463Z,2.61
2023-08-24T12:11:37.028Z,2.37
2023-08-24T12:13:09.827Z,2.63
2023-08-24T12:14:43.388Z,2.59
2023-08-24T12:16:15.330Z,2.48
2023-08-24T12:17:47.250Z,2.53
2023-08-24T12:19:18.884Z,2.42
2023-08-24T12:20:50.580Z,2.25
2023-08-24T12:22:22.278Z,2.26
2023-08-24T12:23:54.005Z,2.08
2023-08-24T12:25:25.557Z,2.15
2023-08-24T12:26:57.181Z,2.23
2023-08-24T12:28:28.957Z,2.17
2023-08-24T12:30:00.552Z,2.42
2023-08-24T12:31:32.123Z,2.16
2023-08-24T12:33:03.732Z,2.23
2023-08-24T12:34:35.613Z,2.28
2023-08-24T12:36:07.163Z,2.25
2023-08-24T12:37:38.858Z,2.05
2023-08-24T12:39:15.536Z,2.14
2023-08-24T12:40:47.041Z,2.24
2023-08-24T12:42:18.658Z,2.18
2023-08-24T12:43:50.438Z,2.12
2023-08-24T12:45:23.962Z,2.12
2023-08-24T12:46:55.798Z,2.12
2023-08-24T12:48:27.668Z,2.39
2023-08-24T12:49:59.610Z,2.29
2023-08-24T12:51:31.153Z,2.19
2023-08-24T12:53:02.677Z,2.27
2023-08-24T12:54:34.382Z,1.94
2023-08-24T12:56:06.000Z,2.21
2023-08-24T12:57:42.597Z,2.35
2023-08-24T12:59:14.239Z,2.30
2023-08-24T13:00:45.889Z,2.17
2023-08-24T13:03:53.709Z,2.17
2023-08-24T13:05:25.402Z,2.56
2023-08-24T13:06:56.935Z,2.11
2023-08-24T13:08:28.571Z,2.28
2023-08-24T13:10:00.269Z,2.24
2023-08-24T13:11:31.867Z,2.47
2023-08-24T13:13:03.626Z,2.38
2023-08-24T13:14:35.456Z,2.47
2023-08-24T13:16:07.155Z,2.58
2023-08-24T13:17:39.009Z,2.60
2023-08-24T13:19:10.580Z,2.42
2023-08-24T13:20:42.173Z,2.27
2023-08-24T13:22:13.756Z,2.85
2023-08-24T13:23:45.320Z,2.64
2023-08-24T13:25:16.928Z,2.21
2023-08-24T13:26:48.707Z,2.50
2023-08-24T13:28:20.221Z,2.44
2023-08-24T13:29:51.780Z,2.37
2023-08-24T13:31:23.320Z,2.56
2023-08-24T13:32:55.297Z,2.45
2023-08-24T13:34:26.937Z,2.50
2023-08-24T13:35:58.460Z,2.74
2023-08-24T13:37:29.948Z,2.39
2023-08-24T13:39:01.454Z,2.36
2023-08-24T13:40:33.077Z,2.44
2023-08-24T13:42:04.565Z,2.63
2023-08-24T13:43:36.167Z,2.52
2023-08-24T13:45:07.657Z,2.47
2023-08-24T13:46:39.418Z,2.39
2023-08-24T13:48:11.100Z,2.45
2023-08-24T13:49:42.771Z,2.46
2023-08-24T13:51:15.975Z,2.67
2023-08-24T13:52:48.240Z,2.47
2023-08-24T13:54:19.744Z,2.45
2023-08-24T13:55:51.394Z,2.20
2023-08-24T13:57:23.353Z,2.52
2023-08-24T13:58:54.998Z,2.59
2023-08-24T14:00:26.629Z,14.26
2023-08-24T14:01:58.173Z,6.65
2023-08-24T14:03:29.946Z,2.47
2023-08-24T14:05:01.569Z,2.59
2023-08-24T14:06:33.105Z,2.56
2023-08-24T14:08:04.746Z,2.34
2023-08-24T14:09:37.428Z,2.63
2023-08-24T14:11:09.182Z,2.38
2023-08-24T14:12:41.882Z,2.52
2023-08-24T14:14:13.447Z,2.64
2023-08-24T14:15:45.247Z,2.66
2023-08-24T14:17:17.178Z,2.48
2023-08-24T14:19:11.631Z,2.44
2023-08-24T14:20:43.336Z,2.54
2023-08-24T14:22:14.849Z,2.33
2023-08-24T14:23:46.504Z,2.46
2023-08-24T14:25:18.014Z,2.49
2023-08-24T14:26:51.431Z,2.52
2023-08-24T14:28:23.056Z,2.46
2023-08-24T14:29:54.516Z,2.65
2023-08-24T14:31:26.728Z,2.47
2023-08-24T14:32:59.626Z,2.49
2023-08-24T14:34:31.429Z,2.35
2023-08-24T14:36:03.152Z,2.48
2023-08-24T14:37:34.661Z,2.49
2023-08-24T14:39:06.227Z,2.56
2023-08-24T14:40:37.879Z,2.43
2023-08-24T14:42:09.617Z,2.36
2023-08-24T14:43:41.140Z,2.30
2023-08-24T14:45:12.688Z,2.53
2023-08-24T14:46:44.249Z,2.52
2023-08-24T14:48:16.140Z,2.41
2023-08-24T14:49:48.133Z,2.77
2023-08-24T14:51:19.663Z,2.58
2023-08-24T14:52:51.339Z,2.60
2023-08-24T14:54:22.881Z,2.37
2023-08-24T14:55:54.427Z,2.48
2023-08-24T14:57:26.039Z,2.20
2023-08-24T14:58:57.611Z,2.52
2023-08-24T15:00:29.324Z,2.54
2023-08-24T15:02:00.906Z,2.48
2023-08-24T15:03:32.743Z,2.42
2023-08-24T15:05:05.196Z,2.62
2023-08-24T15:06:36.855Z,2.35
2023-08-24T15:08:08.409Z,2.80
2023-08-24T15:09:40.033Z,2.58
2023-08-24T15:11:11.605Z,2.59
2023-08-24T15:12:43.269Z,2.72
2023-08-24T15:14:14.792Z,2.69
2023-08-24T15:15:46.298Z,2.57
2023-08-24T15:17:17.932Z,2.64
2023-08-24T15:18:50.293Z,2.75
2023-08-24T15:20:21.881Z,2.74
2023-08-24T15:21:53.603Z,2.77
2023-08-24T15:23:25.885Z,2.80
2023-08-24T15:24:57.546Z,2.98
2023-08-24T15:26:29.136Z,3.06
2023-08-24T15:28:01.243Z,3.05
2023-08-24T15:29:32.876Z,3.23
2023-08-24T15:31:04.378Z,3.50
2023-08-24T15:32:36.168Z,3.64
2023-08-24T15:34:07.836Z,3.51
2023-08-24T15:35:39.482Z,3.34
2023-08-24T15:37:16.231Z,3.52
2023-08-24T15:38:48.195Z,3.52
2023-08-24T15:40:40.938Z,3.63
2023-08-24T15:42:13.203Z,3.63
2023-08-24T15:43:44.805Z,3.43
2023-08-24T15:45:16.465Z,3.64
2023-08-24T15:46:48.032Z,3.48
2023-08-24T15:48:19.688Z,4.03
2023-08-24T15:49:52.416Z,3.88
2023-08-24T15:51:23.962Z,3.74
2023-08-24T15:53:10.344Z,3.95
2023-08-24T15:54:41.840Z,3.51
2023-08-24T15:56:13.459Z,3.27
2023-08-24T15:57:44.919Z,3.20
2023-08-24T15:59:16.585Z,3.15
2023-08-24T16:00:48.397Z,3.48
2023-08-24T16:02:19.894Z,3.61
2023-08-24T16:03:51.485Z,3.26
2023-08-24T16:05:22.970Z,3.49
2023-08-24T16:06:54.895Z,3.53
2023-08-24T16:08:26.421Z,3.54
2023-08-24T16:09:58.173Z,3.28
2023-08-24T16:11:29.994Z,3.45
2023-08-24T16:13:01.609Z,3.36
2023-08-24T16:14:33.263Z,3.57
2023-08-24T16:16:04.826Z,3.39
2023-08-24T16:17:36.635Z,3.72
2023-08-24T16:19:09.919Z,3.88
2023-08-24T16:20:47.060Z,3.66
2023-08-24T16:22:18.972Z,3.71
2023-08-24T16:23:50.693Z,3.93
2023-08-24T16:25:22.205Z,3.49
2023-08-24T16:26:53.786Z,3.33
2023-08-24T16:28:25.618Z,3.84
2023-08-24T16:29:57.201Z,3.74
2023-08-24T16:31:30.575Z,3.59
2023-08-24T16:33:03.580Z,3.52
2023-08-24T16:34:35.303Z,2.94
2023-08-24T16:36:07.065Z,2.84
2023-08-24T16:37:39.612Z,2.51
2023-08-24T16:39:11.059Z,3.45
2023-08-24T16:40:42.540Z,2.43
2023-08-24T16:42:14.092Z,2.73
2023-08-24T16:43:45.630Z,2.95
2023-08-24T16:45:18.463Z,2.44
2023-08-24T16:46:49.898Z,2.84
2023-08-24T16:48:21.636Z,2.61
2023-08-24T16:49:53.888Z,2.55
2023-08-24T16:51:25.718Z,2.74
2023-08-24T16:52:57.187Z,2.50
2023-08-24T16:54:28.709Z,2.72
2023-08-24T16:56:00.108Z,2.82
2023-08-24T16:57:31.714Z,2.74
2023-08-24T16:59:03.463Z,2.83
2023-08-24T17:00:35.403Z,2.85
2023-08-24T17:02:07.332Z,2.68
2023-08-24T17:03:38.846Z,2.81
2023-08-24T17:05:10.611Z,3.17
2023-08-24T17:06:42.429Z,3.08
2023-08-24T17:08:14.114Z,2.48
2023-08-24T17:09:46.229Z,2.61
2023-08-24T17:11:17.748Z,2.66
2023-08-24T17:12:49.283Z,2.55
2023-08-24T17:14:22.062Z,2.76
2023-08-24T17:15:53.629Z,2.20
2023-08-24T17:17:25.330Z,2.32
2023-08-24T17:18:57.083Z,2.32
2023-08-24T17:20:29.111Z,2.44
2023-08-24T17:22:01.179Z,2.43
2023-08-24T17:23:32.710Z,2.63
2023-08-24T17:25:04.339Z,2.30
2023-08-24T17:26:35.991Z,2.27
2023-08-24T17:28:07.664Z,2.30
2023-08-24T17:29:39.308Z,2.34
2023-08-24T17:31:11.063Z,2.28
2023-08-24T17:32:44.139Z,2.23
2023-08-24T17:34:15.813Z,2.21
2023-08-24T17:35:47.554Z,2.19
2023-08-24T17:37:18.991Z,2.26
2023-08-24T17:39:02.994Z,3.19
2023-08-24T17:40:38.563Z,2.49
2023-08-24T17:42:10.041Z,2.28
2023-08-24T17:43:41.798Z,2.03
2023-08-24T17:45:13.190Z,2.20
2023-08-24T17:46:44.936Z,2.14
2023-08-24T17:48:16.775Z,2.12
2023-08-24T17:49:48.293Z,2.13
2023-08-24T17:51:20.104Z,2.23
2023-08-24T17:52:52.367Z,2.19
2023-08-24T17:54:23.871Z,2.19
2023-08-24T17:55:55.402Z,1.93
2023-08-24T17:57:26.976Z,2.12
2023-08-24T17:58:58.401Z,2.29
2023-08-24T18:00:29.813Z,2.29
2023-08-24T18:02:01.610Z,2.34
2023-08-24T18:03:33.254Z,2.32
2023-08-24T18:05:04.837Z,2.03
2023-08-24T18:06:36.519Z,2.23
2023-08-24T18:08:08.136Z,2.01
2023-08-24T18:09:39.786Z,2.36
2023-08-24T18:11:11.296Z,2.06
2023-08-24T18:12:43.023Z,2.01
2023-08-24T18:14:14.432Z,2.34
2023-08-24T18:15:46.082Z,2.17
2023-08-24T18:17:17.722Z,1.97
2023-08-24T18:18:49.382Z,1.99
2023-08-24T18:20:20.911Z,1.89
2023-08-24T18:21:52.342Z,2.09
2023-08-24T18:23:23.994Z,2.00
2023-08-24T18:24:55.692Z,1.84
2023-08-24T18:26:27.313Z,2.06
2023-08-24T18:27:59.108Z,1.92
2023-08-24T18:29:31.068Z,2.09
2023-08-24T18:31:02.499Z,2.04
2023-08-24T18:32:33.978Z,1.97
2023-08-24T18:34:05.627Z,2.09
2023-08-24T18:35:37.166Z,2.02
2023-08-24T18:37:08.638Z,2.19
2023-08-24T18:38:40.122Z,2.15
2023-08-24T18:40:11.669Z,2.22
2023-08-24T18:41:43.079Z,2.30
2023-08-24T18:43:14.628Z,2.04
2023-08-24T18:44:46.043Z,2.14
2023-08-24T18:46:17.486Z,2.13
2023-08-24T18:47:49.033Z,2.18
2023-08-24T18:49:20.830Z,2.01
2023-08-24T18:51:06.515Z,2.17
2023-08-24T18:52:37.982Z,2.14
2023-08-24T18:54:09.425Z,2.22
2023-08-24T18:55:41.309Z,2.57
2023-08-24T18:57:12.796Z,2.44
2023-08-24T18:58:44.330Z,2.52
2023-08-24T19:00:15.934Z,2.44
2023-08-24T19:01:47.676Z,2.63
2023-08-24T19:03:19.146Z,2.30
2023-08-24T19:04:50.886Z,2.57
2023-08-24T19:06:26.531Z,2.32
2023-08-24T19:08:02.296Z,2.29
2023-08-24T19:09:34.059Z,2.56
2023-08-24T19:11:05.694Z,2.82
2023-08-24T19:12:37.625Z,2.80
2023-08-24T19:14:09.182Z,2.48
2023-08-24T19:15:40.822Z,3.13
2023-08-24T19:17:12.285Z,2.90
2023-08-24T19:18:43.903Z,3.29
2023-08-24T19:20:15.426Z,3.63
2023-08-24T19:21:47.060Z,3.44
2023-08-24T19:23:18.596Z,3.02
2023-08-24T19:24:50.293Z,4.92
2023-08-24T19:26:21.776Z,6.31
2023-08-24T19:27:54.005Z,4.39
2023-08-24T19:29:25.669Z,2.84
2023-08-24T19:31:07.238Z,2.56
2023-08-24T19:32:48.851Z,2.45
2023-08-24T19:34:20.331Z,2.49
2023-08-24T19:35:51.756Z,2.63
2023-08-24T19:37:23.308Z,2.59
2023-08-24T19:38:54.813Z,2.45
2023-08-24T19:40:26.493Z,2.62
2023-08-24T19:42:00.358Z,2.57
2023-08-24T19:43:32.111Z,2.47
2023-08-24T19:45:03.578Z,2.15
2023-08-24T19:46:35.225Z,3.40
2023-08-24T19:48:06.802Z,2.93
2023-08-24T19:49:39.473Z,4.83
2023-08-24T19:51:10.884Z,2.51
2023-08-24T19:52:54.863Z,4.15
2023-08-24T19:54:26.436Z,2.71
2023-08-24T19:55:57.908Z,2.40
2023-08-24T19:57:29.484Z,2.25
2023-08-24T19:59:03.029Z,2.22
2023-08-24T20:00:34.972Z,2.34
2023-08-24T20:02:06.398Z,2.56
2023-08-24T20:03:37.950Z,2.59
2023-08-24T20:05:09.538Z,2.58
2023-08-24T20:06:41.219Z,2.40
2023-08-24T20:08:12.809Z,2.28
2023-08-24T20:09:44.331Z,2.66
2023-08-24T20:11:15.911Z,2.29
2023-08-24T20:12:47.361Z,2.29
2023-08-24T20:14:18.867Z,2.45
2023-08-24T20:15:50.370Z,2.25
2023-08-24T20:17:21.853Z,2.59
2023-08-24T20:18:53.588Z,2.41
2023-08-24T20:20:25.208Z,2.40
2023-08-24T20:21:56.933Z,2.48
2023-08-24T20:23:29.172Z,2.45
2023-08-24T20:25:00.971Z,2.49
2023-08-24T20:26:37.697Z,2.79
2023-08-24T20:28:09.133Z,2.68
2023-08-24T20:29:40.608Z,2.61
2023-08-24T20:31:12.216Z,2.79
2023-08-24T20:32:43.774Z,2.51
2023-08-24T20:34:15.372Z,2.74